sensor_id;sensor_type;location;lat;lon;timestamp;temperature;humidity
21799;DHT22;24973;47.178;15.316;2023-04-15T00:02:40;6.10;99.90
21799;DHT22;24973;47.178;15.316;2023-04-15T00:05:30;6.10;99.90
21799;DHT22;24973;47.178;15.316;2023-04-15T00:08:19;6.10;99.90
21799;DHT22;24973;47.178;15.316;2023-04-15T00:11:07;6.00;99.90
21799;DHT22;24973;47.178;15.316;2023-04-15T00:13:58;6.10;99.90
21799;DHT22;24973;47.178;15.316;2023-04-15T00:16:46;6.10;99.90
21799;DHT22;24973;47.178;15.316;2023-04-15T00:19:41;6.10;99.90
21799;DHT22;24973;47.178;15.316;2023-04-15T00:22:31;6.10;99.90
21799;DHT22;24973;47.178;15.316;2023-04-15T00:25:19;5.30;99.90
21799;DHT22;24973;47.178;15.316;2023-04-15T00:28:08;6.10;99.90
21799;DHT22;24973;47.178;15.316;2023-04-15T00:30:58;6.30;99.90
21799;DHT22;24973;47.178;15.316;2023-04-15T00:33:47;6.00;99.90
21799;DHT22;24973;47.178;15.316;2023-04-15T00:36:35;6.10;99.90
21799;DHT22;24973;47.178;15.316;2023-04-15T00:39:24;6.00;99.90
21799;DHT22;24973;47.178;15.316;2023-04-15T00:42:14;6.10;99.90
21799;DHT22;24973;47.178;15.316;2023-04-15T00:45:03;6.10;99.90
21799;DHT22;24973;47.178;15.316;2023-04-15T00:47:54;6.00;99.90
21799;DHT22;24973;47.178;15.316;2023-04-15T00:50:43;6.00;99.90
21799;DHT22;24973;47.178;15.316;2023-04-15T00:53:32;6.00;99.90
21799;DHT22;24973;47.178;15.316;2023-04-15T00:56:21;6.00;99.90
21799;DHT22;24973;47.178;15.316;2023-04-15T00:59:10;6.00;99.90
21799;DHT22;24973;47.178;15.316;2023-04-15T01:01:59;5.90;99.90
21799;DHT22;24973;47.178;15.316;2023-04-15T01:04:49;5.90;99.90
21799;DHT22;24973;47.178;15.316;2023-04-15T01:07:38;5.90;99.90
21799;DHT22;24973;47.178;15.316;2023-04-15T01:10:27;5.90;99.90
21799;DHT22;24973;47.178;15.316;2023-04-15T01:13:16;5.90;99.90
21799;DHT22;24973;47.178;15.316;2023-04-15T01:16:05;5.90;99.90
21799;DHT22;24973;47.178;15.316;2023-04-15T01:18:55;5.90;99.90
21799;DHT22;24973;47.178;15.316;2023-04-15T01:21:45;5.90;99.90
21799;DHT22;24973;47.178;15.316;2023-04-15T01:24:35;5.90;99.90
21799;DHT22;24973;47.178;15.316;2023-04-15T01:27:25;5.90;99.90
21799;DHT22;24973;47.178;15.316;2023-04-15T01:30:14;5.90;99.90
21799;DHT22;24973;47.178;15.316;2023-04-15T01:33:03;5.90;99.90
21799;DHT22;24973;47.178;15.316;2023-04-15T01:35:52;5.80;99.90
21799;DHT22;24973;47.178;15.316;2023-04-15T01:38:41;5.90;99.90
21799;DHT22;24973;47.178;15.316;2023-04-15T01:41:30;5.80;99.90
21799;DHT22;24973;47.178;15.316;2023-04-15T01:44:20;5.80;99.90
21799;DHT22;24973;47.178;15.316;2023-04-15T01:47:09;5.80;99.90
21799;DHT22;24973;47.178;15.316;2023-04-15T01:49:58;5.80;99.90
21799;DHT22;24973;47.178;15.316;2023-04-15T01:52:47;5.70;99.90
21799;DHT22;24973;47.178;15.316;2023-04-15T01:55:36;5.70;99.90
21799;DHT22;24973;47.178;15.316;2023-04-15T01:58:25;5.70;99.90
21799;DHT22;24973;47.178;15.316;2023-04-15T02:01:15;5.70;99.90
21799;DHT22;24973;47.178;15.316;2023-04-15T02:04:05;5.70;99.90
21799;DHT22;24973;47.178;15.316;2023-04-15T02:06:55;5.70;99.90
21799;DHT22;24973;47.178;15.316;2023-04-15T02:09:44;5.70;99.90
21799;DHT22;24973;47.178;15.316;2023-04-15T02:12:33;5.60;99.90
21799;DHT22;24973;47.178;15.316;2023-04-15T02:15:22;5.70;99.90
21799;DHT22;24973;47.178;15.316;2023-04-15T02:18:12;5.70;99.90
21799;DHT22;24973;47.178;15.316;2023-04-15T02:21:01;5.70;99.90
21799;DHT22;24973;47.178;15.316;2023-04-15T02:23:52;5.70;99.90
21799;DHT22;24973;47.178;15.316;2023-04-15T02:26:40;5.70;99.90
21799;DHT22;24973;47.178;15.316;2023-04-15T02:29:30;5.70;99.90
21799;DHT22;24973;47.178;15.316;2023-04-15T02:32:19;5.70;99.90
21799;DHT22;24973;47.178;15.316;2023-04-15T02:35:11;5.70;99.90
21799;DHT22;24973;47.178;15.316;2023-04-15T02:38:00;5.70;99.90
21799;DHT22;24973;47.178;15.316;2023-04-15T02:40:49;5.70;99.90
21799;DHT22;24973;47.178;15.316;2023-04-15T02:43:38;5.70;99.90
21799;DHT22;24973;47.178;15.316;2023-04-15T02:46:27;5.70;99.90
21799;DHT22;24973;47.178;15.316;2023-04-15T02:49:15;5.70;99.90
21799;DHT22;24973;47.178;15.316;2023-04-15T02:52:05;5.70;99.90
21799;DHT22;24973;47.178;15.316;2023-04-15T02:54:54;5.60;99.90
21799;DHT22;24973;47.178;15.316;2023-04-15T02:57:46;5.60;99.90
21799;DHT22;24973;47.178;15.316;2023-04-15T03:00:35;5.60;99.90
21799;DHT22;24973;47.178;15.316;2023-04-15T03:03:24;5.60;99.90
21799;DHT22;24973;47.178;15.316;2023-04-15T03:06:12;5.60;99.90
21799;DHT22;24973;47.178;15.316;2023-04-15T03:09:03;5.60;99.90
21799;DHT22;24973;47.178;15.316;2023-04-15T03:11:51;5.60;99.90
21799;DHT22;24973;47.178;15.316;2023-04-15T03:14:40;5.60;99.90
21799;DHT22;24973;47.178;15.316;2023-04-15T03:17:29;5.60;99.90
21799;DHT22;24973;47.178;15.316;2023-04-15T03:20:18;5.60;99.90
21799;DHT22;24973;47.178;15.316;2023-04-15T03:23:07;5.70;99.90
21799;DHT22;24973;47.178;15.316;2023-04-15T03:25:59;5.60;99.90
21799;DHT22;24973;47.178;15.316;2023-04-15T03:28:49;5.70;99.90
21799;DHT22;24973;47.178;15.316;2023-04-15T03:31:37;5.70;99.90
21799;DHT22;24973;47.178;15.316;2023-04-15T03:34:26;5.70;99.90
21799;DHT22;24973;47.178;15.316;2023-04-15T03:37:15;5.70;99.90
21799;DHT22;24973;47.178;15.316;2023-04-15T03:40:04;5.70;99.90
21799;DHT22;24973;47.178;15.316;2023-04-15T03:42:56;5.70;99.90
21799;DHT22;24973;47.178;15.316;2023-04-15T03:45:44;5.70;99.90
21799;DHT22;24973;47.178;15.316;2023-04-15T03:48:33;5.70;99.90
21799;DHT22;24973;47.178;15.316;2023-04-15T03:51:22;5.70;99.90
21799;DHT22;24973;47.178;15.316;2023-04-15T03:54:10;5.70;99.90
21799;DHT22;24973;47.178;15.316;2023-04-15T03:57:01;5.70;99.90
21799;DHT22;24973;47.178;15.316;2023-04-15T03:59:51;5.70;99.90
21799;DHT22;24973;47.178;15.316;2023-04-15T04:02:40;5.70;99.90
21799;DHT22;24973;47.178;15.316;2023-04-15T04:05:28;5.70;99.90
21799;DHT22;24973;47.178;15.316;2023-04-15T04:08:17;5.70;99.90
21799;DHT22;24973;47.178;15.316;2023-04-15T04:11:07;5.70;99.90
21799;DHT22;24973;47.178;15.316;2023-04-15T04:13:56;5.70;99.90
21799;DHT22;24973;47.178;15.316;2023-04-15T04:16:46;5.70;99.90
21799;DHT22;24973;47.178;15.316;2023-04-15T04:19:35;5.70;99.90
21799;DHT22;24973;47.178;15.316;2023-04-15T04:22:23;5.70;99.90
21799;DHT22;24973;47.178;15.316;2023-04-15T04:25:12;5.60;99.90
21799;DHT22;24973;47.178;15.316;2023-04-15T04:28:01;5.70;99.90
21799;DHT22;24973;47.178;15.316;2023-04-15T04:30:50;5.70;99.90
21799;DHT22;24973;47.178;15.316;2023-04-15T04:33:40;5.70;99.90
21799;DHT22;24973;47.178;15.316;2023-04-15T04:36:28;5.70;99.90
21799;DHT22;24973;47.178;15.316;2023-04-15T04:39:17;5.70;99.90
21799;DHT22;24973;47.178;15.316;2023-04-15T04:42:06;5.70;99.90
21799;DHT22;24973;47.178;15.316;2023-04-15T04:44:55;5.70;99.90
21799;DHT22;24973;47.178;15.316;2023-04-15T04:47:43;5.70;99.90
21799;DHT22;24973;47.178;15.316;2023-04-15T04:50:34;5.80;99.90
21799;DHT22;24973;47.178;15.316;2023-04-15T04:53:22;5.70;99.90
21799;DHT22;24973;47.178;15.316;2023-04-15T04:56:11;5.80;99.90
21799;DHT22;24973;47.178;15.316;2023-04-15T04:59:00;5.80;99.90
21799;DHT22;24973;47.178;15.316;2023-04-15T05:01:49;5.80;99.90
21799;DHT22;24973;47.178;15.316;2023-04-15T05:04:38;5.80;99.90
21799;DHT22;24973;47.178;15.316;2023-04-15T05:07:29;5.80;99.90
21799;DHT22;24973;47.178;15.316;2023-04-15T05:10:17;5.70;99.90
21799;DHT22;24973;47.178;15.316;2023-04-15T05:13:06;5.80;99.90
21799;DHT22;24973;47.178;15.316;2023-04-15T05:15:55;5.80;99.90
21799;DHT22;24973;47.178;15.316;2023-04-15T05:18:44;5.80;99.90
21799;DHT22;24973;47.178;15.316;2023-04-15T05:21:32;5.80;99.90
21799;DHT22;24973;47.178;15.316;2023-04-15T05:24:23;5.80;99.90
21799;DHT22;24973;47.178;15.316;2023-04-15T05:27:12;5.80;99.90
21799;DHT22;24973;47.178;15.316;2023-04-15T05:30:00;5.80;99.90
21799;DHT22;24973;47.178;15.316;2023-04-15T05:32:49;5.90;99.90
21799;DHT22;24973;47.178;15.316;2023-04-15T05:35:38;5.90;99.90
21799;DHT22;24973;47.178;15.316;2023-04-15T05:38:27;5.90;99.90
21799;DHT22;24973;47.178;15.316;2023-04-15T05:41:17;5.90;99.90
21799;DHT22;24973;47.178;15.316;2023-04-15T05:44:06;5.90;99.90
21799;DHT22;24973;47.178;15.316;2023-04-15T05:46:54;5.90;99.90
21799;DHT22;24973;47.178;15.316;2023-04-15T05:49:44;5.90;99.90
21799;DHT22;24973;47.178;15.316;2023-04-15T05:52:32;6.00;99.90
21799;DHT22;24973;47.178;15.316;2023-04-15T05:55:21;6.00;99.90
21799;DHT22;24973;47.178;15.316;2023-04-15T05:58:11;6.00;99.90
21799;DHT22;24973;47.178;15.316;2023-04-15T06:01:00;6.00;99.90
21799;DHT22;24973;47.178;15.316;2023-04-15T06:03:48;6.10;99.90
21799;DHT22;24973;47.178;15.316;2023-04-15T06:06:37;6.20;99.90
21799;DHT22;24973;47.178;15.316;2023-04-15T06:09:26;6.20;99.90
21799;DHT22;24973;47.178;15.316;2023-04-15T06:12:16;6.30;99.90
21799;DHT22;24973;47.178;15.316;2023-04-15T06:15:07;6.30;99.90
21799;DHT22;24973;47.178;15.316;2023-04-15T06:17:57;6.40;99.90
21799;DHT22;24973;47.178;15.316;2023-04-15T06:20:46;6.40;99.90
21799;DHT22;24973;47.178;15.316;2023-04-15T06:23:34;6.50;99.90
21799;DHT22;24973;47.178;15.316;2023-04-15T06:26:23;6.50;99.90
21799;DHT22;24973;47.178;15.316;2023-04-15T06:29:12;6.60;99.90
21799;DHT22;24973;47.178;15.316;2023-04-15T06:32:02;6.60;99.90
21799;DHT22;24973;47.178;15.316;2023-04-15T06:34:51;6.60;99.90
21799;DHT22;24973;47.178;15.316;2023-04-15T06:37:40;6.60;99.90
21799;DHT22;24973;47.178;15.316;2023-04-15T06:40:29;6.70;99.90
21799;DHT22;24973;47.178;15.316;2023-04-15T06:43:18;6.70;99.90
21799;DHT22;24973;47.178;15.316;2023-04-15T06:46:07;6.70;99.90
21799;DHT22;24973;47.178;15.316;2023-04-15T06:48:57;6.80;99.90
21799;DHT22;24973;47.178;15.316;2023-04-15T06:51:45;6.90;99.90
21799;DHT22;24973;47.178;15.316;2023-04-15T06:54:34;6.90;99.90
21799;DHT22;24973;47.178;15.316;2023-04-15T06:57:23;6.90;99.90
21799;DHT22;24973;47.178;15.316;2023-04-15T07:00:13;6.90;99.90
21799;DHT22;24973;47.178;15.316;2023-04-15T07:03:02;6.90;99.90
21799;DHT22;24973;47.178;15.316;2023-04-15T07:05:52;6.90;99.90
21799;DHT22;24973;47.178;15.316;2023-04-15T07:08:41;6.80;99.90
21799;DHT22;24973;47.178;15.316;2023-04-15T07:11:30;6.80;99.90
21799;DHT22;24973;47.178;15.316;2023-04-15T07:14:18;6.80;99.90
21799;DHT22;24973;47.178;15.316;2023-04-15T07:17:08;6.60;99.90
21799;DHT22;24973;47.178;15.316;2023-04-15T07:19:57;6.80;99.90
21799;DHT22;24973;47.178;15.316;2023-04-15T07:22:47;6.80;99.90
21799;DHT22;24973;47.178;15.316;2023-04-15T07:25:36;6.70;99.90
21799;DHT22;24973;47.178;15.316;2023-04-15T07:28:24;6.70;99.90
21799;DHT22;24973;47.178;15.316;2023-04-15T07:31:13;6.70;99.90
21799;DHT22;24973;47.178;15.316;2023-04-15T07:34:02;6.70;99.90
21799;DHT22;24973;47.178;15.316;2023-04-15T07:36:51;6.70;99.90
21799;DHT22;24973;47.178;15.316;2023-04-15T07:39:41;6.80;99.90
21799;DHT22;24973;47.178;15.316;2023-04-15T07:42:30;6.90;99.90
21799;DHT22;24973;47.178;15.316;2023-04-15T07:45:19;6.90;99.90
21799;DHT22;24973;47.178;15.316;2023-04-15T07:48:07;7.00;99.90
21799;DHT22;24973;47.178;15.316;2023-04-15T07:50:59;7.10;99.90
21799;DHT22;24973;47.178;15.316;2023-04-15T07:53:49;7.30;99.90
21799;DHT22;24973;47.178;15.316;2023-04-15T07:56:39;7.40;99.90
21799;DHT22;24973;47.178;15.316;2023-04-15T07:59:28;7.50;99.90
21799;DHT22;24973;47.178;15.316;2023-04-15T08:02:19;7.70;99.90
21799;DHT22;24973;47.178;15.316;2023-04-15T08:05:09;8.00;99.90
21799;DHT22;24973;47.178;15.316;2023-04-15T08:07:58;7.90;99.90
21799;DHT22;24973;47.178;15.316;2023-04-15T08:10:47;7.90;99.90
21799;DHT22;24973;47.178;15.316;2023-04-15T08:13:39;8.00;99.90
21799;DHT22;24973;47.178;15.316;2023-04-15T08:16:28;8.00;99.90
21799;DHT22;24973;47.178;15.316;2023-04-15T08:19:17;8.10;99.90
21799;DHT22;24973;47.178;15.316;2023-04-15T08:22:05;8.20;99.90
21799;DHT22;24973;47.178;15.316;2023-04-15T08:24:54;8.20;99.90
21799;DHT22;24973;47.178;15.316;2023-04-15T08:27:44;8.30;99.90
21799;DHT22;24973;47.178;15.316;2023-04-15T08:30:34;8.30;99.90
21799;DHT22;24973;47.178;15.316;2023-04-15T08:33:23;8.30;99.90
21799;DHT22;24973;47.178;15.316;2023-04-15T08:36:11;8.30;99.90
21799;DHT22;24973;47.178;15.316;2023-04-15T08:39:01;8.30;99.90
21799;DHT22;24973;47.178;15.316;2023-04-15T08:41:54;8.30;99.90
21799;DHT22;24973;47.178;15.316;2023-04-15T08:44:45;8.40;99.90
21799;DHT22;24973;47.178;15.316;2023-04-15T08:47:37;8.40;99.90
21799;DHT22;24973;47.178;15.316;2023-04-15T08:50:28;8.40;99.90
21799;DHT22;24973;47.178;15.316;2023-04-15T08:53:18;8.50;99.90
21799;DHT22;24973;47.178;15.316;2023-04-15T08:56:09;8.50;99.90
21799;DHT22;24973;47.178;15.316;2023-04-15T08:59:00;8.60;99.90
21799;DHT22;24973;47.178;15.316;2023-04-15T09:01:49;8.70;99.90
21799;DHT22;24973;47.178;15.316;2023-04-15T09:04:40;8.70;99.90
21799;DHT22;24973;47.178;15.316;2023-04-15T09:07:29;8.80;99.90
21799;DHT22;24973;47.178;15.316;2023-04-15T09:10:17;8.90;99.90
21799;DHT22;24973;47.178;15.316;2023-04-15T09:13:06;8.90;99.90
21799;DHT22;24973;47.178;15.316;2023-04-15T09:15:56;9.00;99.90
21799;DHT22;24973;47.178;15.316;2023-04-15T09:18:45;9.00;99.90
21799;DHT22;24973;47.178;15.316;2023-04-15T09:21:35;9.10;99.90
21799;DHT22;24973;47.178;15.316;2023-04-15T09:24:24;9.20;99.90
21799;DHT22;24973;47.178;15.316;2023-04-15T09:27:16;9.30;99.90
21799;DHT22;24973;47.178;15.316;2023-04-15T09:30:08;9.20;99.90
21799;DHT22;24973;47.178;15.316;2023-04-15T09:32:59;9.30;99.90
21799;DHT22;24973;47.178;15.316;2023-04-15T09:35:58;9.40;99.90
21799;DHT22;24973;47.178;15.316;2023-04-15T09:38:55;9.50;99.90
21799;DHT22;24973;47.178;15.316;2023-04-15T09:41:44;9.60;99.90
21799;DHT22;24973;47.178;15.316;2023-04-15T09:44:33;9.60;99.90
21799;DHT22;24973;47.178;15.316;2023-04-15T09:47:29;9.70;99.90
21799;DHT22;24973;47.178;15.316;2023-04-15T09:50:18;9.80;99.90
21799;DHT22;24973;47.178;15.316;2023-04-15T09:53:08;9.80;99.90
21799;DHT22;24973;47.178;15.316;2023-04-15T09:55:59;9.90;99.90
21799;DHT22;24973;47.178;15.316;2023-04-15T09:58:55;10.00;99.90
21799;DHT22;24973;47.178;15.316;2023-04-15T10:01:44;9.90;99.90
21799;DHT22;24973;47.178;15.316;2023-04-15T10:04:35;10.00;99.90
21799;DHT22;24973;47.178;15.316;2023-04-15T10:07:27;10.00;99.90
21799;DHT22;24973;47.178;15.316;2023-04-15T10:10:17;10.00;99.90
21799;DHT22;24973;47.178;15.316;2023-04-15T10:13:08;10.10;99.90
21799;DHT22;24973;47.178;15.316;2023-04-15T10:15:58;10.20;99.90
21799;DHT22;24973;47.178;15.316;2023-04-15T10:18:54;10.30;99.90
21799;DHT22;24973;47.178;15.316;2023-04-15T10:21:44;10.30;99.90
21799;DHT22;24973;47.178;15.316;2023-04-15T10:24:33;10.30;99.90
21799;DHT22;24973;47.178;15.316;2023-04-15T10:27:23;10.20;99.90
21799;DHT22;24973;47.178;15.316;2023-04-15T10:30:14;10.10;99.90
21799;DHT22;24973;47.178;15.316;2023-04-15T10:33:04;10.00;99.90
21799;DHT22;24973;47.178;15.316;2023-04-15T10:35:54;9.80;99.90
21799;DHT22;24973;47.178;15.316;2023-04-15T10:38:44;9.70;99.90
21799;DHT22;24973;47.178;15.316;2023-04-15T10:41:33;9.50;99.90
21799;DHT22;24973;47.178;15.316;2023-04-15T10:44:25;9.30;99.90
21799;DHT22;24973;47.178;15.316;2023-04-15T10:47:16;9.20;99.90
21799;DHT22;24973;47.178;15.316;2023-04-15T10:50:07;9.10;99.90
21799;DHT22;24973;47.178;15.316;2023-04-15T10:52:56;9.20;99.90
21799;DHT22;24973;47.178;15.316;2023-04-15T10:55:45;9.20;99.90
21799;DHT22;24973;47.178;15.316;2023-04-15T10:58:40;9.30;99.90
21799;DHT22;24973;47.178;15.316;2023-04-15T11:01:53;9.40;99.90
21799;DHT22;24973;47.178;15.316;2023-04-15T11:04:55;9.40;99.90
21799;DHT22;24973;47.178;15.316;2023-04-15T11:07:50;9.50;99.90
21799;DHT22;24973;47.178;15.316;2023-04-15T11:10:51;9.50;99.90
21799;DHT22;24973;47.178;15.316;2023-04-15T11:13:47;9.60;99.90
21799;DHT22;24973;47.178;15.316;2023-04-15T11:16:41;9.60;99.90
21799;DHT22;24973;47.178;15.316;2023-04-15T11:19:35;9.70;99.90
21799;DHT22;24973;47.178;15.316;2023-04-15T11:22:26;9.90;99.90
21799;DHT22;24973;47.178;15.316;2023-04-15T11:25:22;10.10;99.90
21799;DHT22;24973;47.178;15.316;2023-04-15T11:28:12;10.20;99.90
21799;DHT22;24973;47.178;15.316;2023-04-15T11:31:11;10.30;99.90
21799;DHT22;24973;47.178;15.316;2023-04-15T11:34:01;10.30;99.90
21799;DHT22;24973;47.178;15.316;2023-04-15T11:36:50;10.40;99.90
21799;DHT22;24973;47.178;15.316;2023-04-15T11:39:41;10.40;99.90
21799;DHT22;24973;47.178;15.316;2023-04-15T11:42:30;10.30;99.90
21799;DHT22;24973;47.178;15.316;2023-04-15T11:45:25;10.40;99.90
21799;DHT22;24973;47.178;15.316;2023-04-15T11:48:14;10.30;99.90
21799;DHT22;24973;47.178;15.316;2023-04-15T11:51:04;10.20;99.90
21799;DHT22;24973;47.178;15.316;2023-04-15T11:53:55;10.10;99.90
21799;DHT22;24973;47.178;15.316;2023-04-15T11:56:49;10.10;99.90
21799;DHT22;24973;47.178;15.316;2023-04-15T11:59:42;10.00;99.90
21799;DHT22;24973;47.178;15.316;2023-04-15T12:02:35;9.70;99.90
21799;DHT22;24973;47.178;15.316;2023-04-15T12:05:24;9.70;99.90
21799;DHT22;24973;47.178;15.316;2023-04-15T12:08:13;9.60;99.90
21799;DHT22;24973;47.178;15.316;2023-04-15T12:11:02;9.60;99.90
21799;DHT22;24973;47.178;15.316;2023-04-15T12:13:54;9.70;99.90
21799;DHT22;24973;47.178;15.316;2023-04-15T12:16:45;9.80;99.90
21799;DHT22;24973;47.178;15.316;2023-04-15T12:19:37;9.90;99.90
21799;DHT22;24973;47.178;15.316;2023-04-15T12:22:27;9.90;99.90
21799;DHT22;24973;47.178;15.316;2023-04-15T12:25:16;10.00;99.90
21799;DHT22;24973;47.178;15.316;2023-04-15T12:28:10;10.00;99.90
21799;DHT22;24973;47.178;15.316;2023-04-15T12:31:07;10.10;99.90
21799;DHT22;24973;47.178;15.316;2023-04-15T12:33:58;10.10;99.90
21799;DHT22;24973;47.178;15.316;2023-04-15T12:36:47;10.10;99.90
21799;DHT22;24973;47.178;15.316;2023-04-15T12:39:37;10.10;99.90
21799;DHT22;24973;47.178;15.316;2023-04-15T12:42:27;10.00;99.90
21799;DHT22;24973;47.178;15.316;2023-04-15T12:45:16;9.90;99.90
21799;DHT22;24973;47.178;15.316;2023-04-15T12:48:09;9.80;99.90
21799;DHT22;24973;47.178;15.316;2023-04-15T12:50:58;9.70;99.90
21799;DHT22;24973;47.178;15.316;2023-04-15T12:53:47;9.60;99.90
21799;DHT22;24973;47.178;15.316;2023-04-15T12:56:36;9.50;99.90
21799;DHT22;24973;47.178;15.316;2023-04-15T12:59:25;9.30;99.90
21799;DHT22;24973;47.178;15.316;2023-04-15T13:02:14;9.20;99.90
21799;DHT22;24973;47.178;15.316;2023-04-15T13:05:05;9.00;99.90
21799;DHT22;24973;47.178;15.316;2023-04-15T13:07:54;8.90;99.90
21799;DHT22;24973;47.178;15.316;2023-04-15T13:10:43;8.80;99.90
21799;DHT22;24973;47.178;15.316;2023-04-15T13:13:32;8.80;99.90
21799;DHT22;24973;47.178;15.316;2023-04-15T13:16:21;8.80;99.90
21799;DHT22;24973;47.178;15.316;2023-04-15T13:19:10;8.80;99.90
21799;DHT22;24973;47.178;15.316;2023-04-15T13:22:01;8.90;99.90
21799;DHT22;24973;47.178;15.316;2023-04-15T13:24:50;9.00;99.90
21799;DHT22;24973;47.178;15.316;2023-04-15T13:27:39;9.10;99.90
21799;DHT22;24973;47.178;15.316;2023-04-15T13:30:28;9.20;99.90
21799;DHT22;24973;47.178;15.316;2023-04-15T13:33:17;9.20;99.90
21799;DHT22;24973;47.178;15.316;2023-04-15T13:36:06;9.30;99.90
21799;DHT22;24973;47.178;15.316;2023-04-15T13:38:57;9.30;99.90
21799;DHT22;24973;47.178;15.316;2023-04-15T13:41:46;9.30;99.90
21799;DHT22;24973;47.178;15.316;2023-04-15T13:44:35;9.40;99.90
21799;DHT22;24973;47.178;15.316;2023-04-15T13:47:24;9.40;99.90
21799;DHT22;24973;47.178;15.316;2023-04-15T13:50:13;9.40;99.90
21799;DHT22;24973;47.178;15.316;2023-04-15T13:53:02;9.40;99.90
21799;DHT22;24973;47.178;15.316;2023-04-15T13:55:52;9.30;99.90
21799;DHT22;24973;47.178;15.316;2023-04-15T13:58:41;9.30;99.90
21799;DHT22;24973;47.178;15.316;2023-04-15T14:01:30;9.30;99.90
21799;DHT22;24973;47.178;15.316;2023-04-15T14:04:18;9.30;99.90
21799;DHT22;24973;47.178;15.316;2023-04-15T14:07:07;9.30;99.90
21799;DHT22;24973;47.178;15.316;2023-04-15T14:09:56;9.30;99.90
21799;DHT22;24973;47.178;15.316;2023-04-15T14:12:46;9.30;99.90
21799;DHT22;24973;47.178;15.316;2023-04-15T14:15:35;9.30;99.90
21799;DHT22;24973;47.178;15.316;2023-04-15T14:18:24;9.30;99.90
21799;DHT22;24973;47.178;15.316;2023-04-15T14:21:13;9.30;99.90
21799;DHT22;24973;47.178;15.316;2023-04-15T14:24:02;9.30;99.90
21799;DHT22;24973;47.178;15.316;2023-04-15T14:26:51;9.30;99.90
21799;DHT22;24973;47.178;15.316;2023-04-15T14:29:41;9.30;99.90
21799;DHT22;24973;47.178;15.316;2023-04-15T14:32:30;9.20;99.90
21799;DHT22;24973;47.178;15.316;2023-04-15T14:35:19;9.10;99.90
21799;DHT22;24973;47.178;15.316;2023-04-15T14:38:08;9.10;99.90
21799;DHT22;24973;47.178;15.316;2023-04-15T14:40:57;9.10;99.90
21799;DHT22;24973;47.178;15.316;2023-04-15T14:43:47;9.10;99.90
21799;DHT22;24973;47.178;15.316;2023-04-15T14:46:37;9.00;99.90
21799;DHT22;24973;47.178;15.316;2023-04-15T14:49:26;8.90;99.90
21799;DHT22;24973;47.178;15.316;2023-04-15T14:52:16;8.80;99.90
21799;DHT22;24973;47.178;15.316;2023-04-15T14:55:06;8.70;99.90
21799;DHT22;24973;47.178;15.316;2023-04-15T14:57:56;8.80;99.90
21799;DHT22;24973;47.178;15.316;2023-04-15T15:00:45;8.80;99.90
21799;DHT22;24973;47.178;15.316;2023-04-15T15:03:36;8.80;99.90
21799;DHT22;24973;47.178;15.316;2023-04-15T15:06:26;8.80;99.90
21799;DHT22;24973;47.178;15.316;2023-04-15T15:09:14;8.80;99.90
21799;DHT22;24973;47.178;15.316;2023-04-15T15:12:03;8.80;99.90
21799;DHT22;24973;47.178;15.316;2023-04-15T15:14:54;8.80;99.90
21799;DHT22;24973;47.178;15.316;2023-04-15T15:17:43;8.80;99.90
21799;DHT22;24973;47.178;15.316;2023-04-15T15:20:33;8.80;99.90
21799;DHT22;24973;47.178;15.316;2023-04-15T15:23:22;8.80;99.90
21799;DHT22;24973;47.178;15.316;2023-04-15T15:26:11;8.90;99.90
21799;DHT22;24973;47.178;15.316;2023-04-15T15:28:59;8.90;99.90
21799;DHT22;24973;47.178;15.316;2023-04-15T15:31:48;8.90;99.90
21799;DHT22;24973;47.178;15.316;2023-04-15T15:34:37;9.00;99.90
21799;DHT22;24973;47.178;15.316;2023-04-15T15:37:29;9.00;99.90
21799;DHT22;24973;47.178;15.316;2023-04-15T15:40:18;9.00;99.90
21799;DHT22;24973;47.178;15.316;2023-04-15T15:43:07;9.00;99.90
21799;DHT22;24973;47.178;15.316;2023-04-15T15:45:55;9.10;99.90
21799;DHT22;24973;47.178;15.316;2023-04-15T15:48:44;9.10;99.90
21799;DHT22;24973;47.178;15.316;2023-04-15T15:51:33;9.00;99.90
21799;DHT22;24973;47.178;15.316;2023-04-15T15:54:23;9.00;99.90
21799;DHT22;24973;47.178;15.316;2023-04-15T15:57:12;9.00;99.90
21799;DHT22;24973;47.178;15.316;2023-04-15T16:00:01;9.00;99.90
21799;DHT22;24973;47.178;15.316;2023-04-15T16:02:57;9.00;99.90
21799;DHT22;24973;47.178;15.316;2023-04-15T16:05:48;8.90;99.90
21799;DHT22;24973;47.178;15.316;2023-04-15T16:08:37;8.90;99.90
21799;DHT22;24973;47.178;15.316;2023-04-15T16:11:28;8.90;99.90
21799;DHT22;24973;47.178;15.316;2023-04-15T16:14:16;8.80;99.90
21799;DHT22;24973;47.178;15.316;2023-04-15T16:17:05;8.70;99.90
21799;DHT22;24973;47.178;15.316;2023-04-15T16:19:54;8.60;99.90
21799;DHT22;24973;47.178;15.316;2023-04-15T16:22:45;8.60;99.90
21799;DHT22;24973;47.178;15.316;2023-04-15T16:25:34;8.60;99.90
21799;DHT22;24973;47.178;15.316;2023-04-15T16:28:24;8.70;99.90
21799;DHT22;24973;47.178;15.316;2023-04-15T16:31:13;8.70;99.90
21799;DHT22;24973;47.178;15.316;2023-04-15T16:34:02;8.70;99.90
21799;DHT22;24973;47.178;15.316;2023-04-15T16:36:50;8.80;99.90
21799;DHT22;24973;47.178;15.316;2023-04-15T16:39:39;8.80;99.90
21799;DHT22;24973;47.178;15.316;2023-04-15T16:42:28;8.80;99.90
21799;DHT22;24973;47.178;15.316;2023-04-15T16:45:18;8.70;99.90
21799;DHT22;24973;47.178;15.316;2023-04-15T16:48:07;8.70;99.90
21799;DHT22;24973;47.178;15.316;2023-04-15T16:50:56;8.60;99.90
21799;DHT22;24973;47.178;15.316;2023-04-15T16:53:45;8.60;99.90
21799;DHT22;24973;47.178;15.316;2023-04-15T16:56:34;8.50;99.90
21799;DHT22;24973;47.178;15.316;2023-04-15T16:59:24;8.50;99.90
21799;DHT22;24973;47.178;15.316;2023-04-15T17:02:17;8.40;99.90
21799;DHT22;24973;47.178;15.316;2023-04-15T17:05:06;8.40;99.90
21799;DHT22;24973;47.178;15.316;2023-04-15T17:07:55;8.30;99.90
21799;DHT22;24973;47.178;15.316;2023-04-15T17:10:44;8.20;99.90
21799;DHT22;24973;47.178;15.316;2023-04-15T17:13:33;8.10;99.90
21799;DHT22;24973;47.178;15.316;2023-04-15T17:16:22;8.00;99.90
21799;DHT22;24973;47.178;15.316;2023-04-15T17:19:12;8.00;99.90
21799;DHT22;24973;47.178;15.316;2023-04-15T17:22:01;7.80;99.90
21799;DHT22;24973;47.178;15.316;2023-04-15T17:24:49;7.80;99.90
21799;DHT22;24973;47.178;15.316;2023-04-15T17:27:38;7.70;99.90
21799;DHT22;24973;47.178;15.316;2023-04-15T17:30:27;7.70;99.90
21799;DHT22;24973;47.178;15.316;2023-04-15T17:33:16;7.70;99.90
21799;DHT22;24973;47.178;15.316;2023-04-15T17:36:06;7.70;99.90
21799;DHT22;24973;47.178;15.316;2023-04-15T17:38:55;7.60;99.90
21799;DHT22;24973;47.178;15.316;2023-04-15T17:41:44;7.50;99.90
21799;DHT22;24973;47.178;15.316;2023-04-15T17:44:33;7.40;99.90
21799;DHT22;24973;47.178;15.316;2023-04-15T17:47:21;7.40;99.90
21799;DHT22;24973;47.178;15.316;2023-04-15T17:50:10;7.30;99.90
21799;DHT22;24973;47.178;15.316;2023-04-15T17:53:00;7.30;99.90